createdAt,value
2022-10-15T00:01:18.058Z,10.90
2022-10-15T00:03:46.150Z,10.90
2022-10-15T00:06:23.402Z,10.80
2022-10-15T00:08:50.312Z,10.80
2022-10-15T00:11:20.722Z,10.80
2022-10-15T00:13:47.772Z,10.70
2022-10-15T00:16:17.282Z,10.70
2022-10-15T00:18:44.654Z,10.60
2022-10-15T00:21:15.270Z,10.70
2022-10-15T00:23:43.152Z,10.70
2022-10-15T00:26:18.596Z,10.80
2022-10-15T00:28:46.298Z,10.70
2022-10-15T00:31:15.991Z,10.70
2022-10-15T00:33:43.098Z,10.70
2022-10-15T00:36:18.535Z,10.70
2022-10-15T00:38:45.763Z,10.80
2022-10-15T00:41:19.536Z,10.80
2022-10-15T00:43:49.273Z,10.70
2022-10-15T00:46:36.218Z,10.70
2022-10-15T00:49:21.774Z,10.70
2022-10-15T00:51:59.286Z,10.70
2022-10-15T00:54:29.112Z,10.70
2022-10-15T00:56:56.274Z,10.70
2022-10-15T00:59:26.322Z,10.70
2022-10-15T01:01:54.981Z,10.70
2022-10-15T01:04:23.511Z,10.70
2022-10-15T01:06:50.338Z,10.70
2022-10-15T01:09:17.698Z,10.70
2022-10-15T01:11:48.530Z,10.70
2022-10-15T01:14:36.298Z,10.70
2022-10-15T01:17:30.373Z,10.70
2022-10-15T01:20:20.644Z,10.60
2022-10-15T01:22:50.271Z,10.60
2022-10-15T01:25:39.955Z,10.60
2022-10-15T01:28:46.515Z,10.50
2022-10-15T01:31:16.634Z,10.60
2022-10-15T01:34:04.612Z,10.60
2022-10-15T01:36:47.395Z,10.50
2022-10-15T01:39:23.624Z,10.50
2022-10-15T01:42:00.816Z,10.50
2022-10-15T01:44:42.713Z,10.40
2022-10-15T01:47:23.982Z,10.40
2022-10-15T01:49:54.454Z,10.40
2022-10-15T01:55:00.021Z,10.40
2022-10-15T01:57:30.685Z,10.40
2022-10-15T01:59:58.384Z,10.40
2022-10-15T02:02:25.917Z,10.30
2022-10-15T02:04:53.297Z,10.30
2022-10-15T02:07:31.605Z,10.30
2022-10-15T02:10:04.329Z,10.30
2022-10-15T02:13:07.521Z,10.20
2022-10-15T02:16:03.025Z,10.20
2022-10-15T02:18:41.183Z,10.20
2022-10-15T02:21:21.050Z,10.20
2022-10-15T02:23:50.854Z,10.10
2022-10-15T02:26:18.919Z,10.10
2022-10-15T02:28:51.149Z,10.10
2022-10-15T02:31:20.632Z,10.10
2022-10-15T02:33:48.965Z,10.00
2022-10-15T02:36:17.466Z,10.10
2022-10-15T02:38:46.215Z,10.00
2022-10-15T02:41:14.237Z,10.00
2022-10-15T02:43:42.102Z,10.00
2022-10-15T02:46:11.897Z,9.90
2022-10-15T02:48:38.732Z,10.00
2022-10-15T02:51:05.866Z,10.00
2022-10-15T02:53:33.094Z,9.90
2022-10-15T02:56:00.004Z,9.90
2022-10-15T02:58:26.983Z,9.90
2022-10-15T03:00:53.996Z,10.00
2022-10-15T03:03:20.891Z,10.00
2022-10-15T03:05:50.953Z,10.10
2022-10-15T03:08:17.991Z,10.10
2022-10-15T03:10:46.466Z,10.00
2022-10-15T03:13:13.517Z,10.00
2022-10-15T03:15:40.638Z,10.00
2022-10-15T03:18:08.458Z,10.00
2022-10-15T03:20:35.789Z,10.10
2022-10-15T03:23:03.016Z,10.10
2022-10-15T03:25:29.881Z,10.10
2022-10-15T03:27:57.048Z,10.10
2022-10-15T03:30:24.153Z,10.10
2022-10-15T03:32:51.071Z,10.20
2022-10-15T03:35:18.007Z,10.20
2022-10-15T03:37:45.004Z,10.20
2022-10-15T03:40:14.459Z,10.20
2022-10-15T03:42:41.833Z,10.20
2022-10-15T03:45:09.682Z,10.30
2022-10-15T03:47:36.594Z,10.20
2022-10-15T03:50:03.821Z,10.30
2022-10-15T03:52:30.701Z,10.30
2022-10-15T03:54:57.721Z,10.40
2022-10-15T03:57:24.711Z,10.40
2022-10-15T03:59:51.637Z,10.40
2022-10-15T04:02:18.614Z,10.50
2022-10-15T04:04:45.500Z,10.50
2022-10-15T04:07:12.619Z,10.50
2022-10-15T04:09:39.566Z,10.60
2022-10-15T04:12:06.601Z,10.70
2022-10-15T04:14:33.481Z,10.70
2022-10-15T04:17:00.400Z,10.70
2022-10-15T04:19:27.303Z,10.70
2022-10-15T04:21:54.413Z,10.70
2022-10-15T04:24:21.382Z,10.70
2022-10-15T04:26:49.195Z,10.80
2022-10-15T04:29:16.314Z,10.80
2022-10-15T04:31:43.603Z,10.80
2022-10-15T04:34:10.692Z,10.80
2022-10-15T04:36:38.344Z,10.90
2022-10-15T04:39:06.923Z,11.00
2022-10-15T04:41:35.678Z,10.90
2022-10-15T04:44:02.929Z,11.00
2022-10-15T04:46:29.999Z,11.10
2022-10-15T04:48:57.950Z,11.10
2022-10-15T04:51:26.352Z,11.10
2022-10-15T04:53:53.589Z,11.10
2022-10-15T04:56:22.138Z,11.10
2022-10-15T04:58:50.254Z,11.10
2022-10-15T05:01:20.617Z,11.10
2022-10-15T05:03:48.990Z,11.10
2022-10-15T05:06:18.826Z,11.20
2022-10-15T05:08:46.806Z,11.20
2022-10-15T05:11:23.260Z,11.20
2022-10-15T05:13:50.833Z,11.20
2022-10-15T05:16:24.252Z,11.20
2022-10-15T05:18:53.099Z,11.30
2022-10-15T05:21:20.671Z,11.30
2022-10-15T05:23:48.070Z,11.30
2022-10-15T05:26:18.046Z,11.30
2022-10-15T05:28:45.449Z,11.40
2022-10-15T05:31:18.947Z,11.40
2022-10-15T05:33:50.755Z,11.40
2022-10-15T05:36:20.230Z,11.40
2022-10-15T05:38:48.850Z,11.50
2022-10-15T05:41:16.349Z,11.50
2022-10-15T05:43:43.443Z,11.50
2022-10-15T05:46:10.603Z,11.50
2022-10-15T05:48:37.647Z,11.60
2022-10-15T05:51:06.596Z,11.60
2022-10-15T05:53:33.956Z,11.50
2022-10-15T05:56:00.785Z,11.60
2022-10-15T05:58:33.350Z,11.50
2022-10-15T06:01:06.940Z,11.60
2022-10-15T06:03:34.131Z,11.60
2022-10-15T06:06:01.500Z,11.60
2022-10-15T06:08:30.025Z,11.60
2022-10-15T06:11:05.233Z,11.70
2022-10-15T06:13:35.473Z,11.70
2022-10-15T06:16:04.242Z,11.70
2022-10-15T06:18:31.103Z,11.70
2022-10-15T06:20:58.017Z,11.80
2022-10-15T06:23:24.997Z,11.80
2022-10-15T06:25:52.238Z,11.80
2022-10-15T06:28:19.164Z,11.80
2022-10-15T06:30:46.325Z,11.90
2022-10-15T06:33:13.312Z,11.90
2022-10-15T06:35:41.329Z,12.00
2022-10-15T06:38:08.497Z,11.90
2022-10-15T06:40:35.385Z,12.00
2022-10-15T06:43:07.983Z,12.10
2022-10-15T06:45:37.266Z,12.00
2022-10-15T06:48:05.458Z,12.10
2022-10-15T06:50:33.601Z,12.10
2022-10-15T06:53:00.845Z,12.20
2022-10-15T06:55:29.166Z,12.10
2022-10-15T06:57:56.767Z,12.10
2022-10-15T07:00:25.529Z,12.20
2022-10-15T07:02:52.786Z,12.20
2022-10-15T07:05:20.673Z,12.20
2022-10-15T07:07:54.676Z,12.30
2022-10-15T07:10:22.066Z,12.30
2022-10-15T07:12:49.037Z,12.40
2022-10-15T07:15:17.110Z,12.40
2022-10-15T07:17:48.945Z,12.50
2022-10-15T07:20:20.254Z,12.50
2022-10-15T07:22:52.333Z,12.50
2022-10-15T07:25:19.252Z,12.60
2022-10-15T07:27:46.160Z,12.60
2022-10-15T07:30:13.216Z,12.60
2022-10-15T07:32:40.528Z,12.70
2022-10-15T07:35:11.775Z,12.70
2022-10-15T07:37:38.984Z,12.70
2022-10-15T07:40:06.527Z,12.80
2022-10-15T07:42:33.523Z,12.90
2022-10-15T07:45:00.685Z,12.80
2022-10-15T07:47:27.707Z,12.90
2022-10-15T07:49:54.610Z,13.00
2022-10-15T07:52:22.466Z,13.00
2022-10-15T07:54:49.766Z,13.10
2022-10-15T07:57:17.889Z,13.10
2022-10-15T07:59:45.170Z,13.10
2022-10-15T08:02:17.021Z,13.10
2022-10-15T08:04:43.932Z,13.10
2022-10-15T08:07:11.233Z,13.10
2022-10-15T08:09:38.250Z,13.10
2022-10-15T08:12:07.068Z,13.00
2022-10-15T08:14:35.579Z,13.10
2022-10-15T08:17:06.489Z,13.10
2022-10-15T08:19:33.542Z,13.10
2022-10-15T08:22:00.548Z,13.10
2022-10-15T08:24:30.664Z,13.20
2022-10-15T08:26:58.628Z,13.10
2022-10-15T08:29:25.950Z,13.10
2022-10-15T08:31:52.909Z,13.10
2022-10-15T08:34:19.932Z,13.10
2022-10-15T08:36:46.974Z,13.10
2022-10-15T08:39:14.013Z,13.20
2022-10-15T08:41:45.604Z,13.20
2022-10-15T08:44:41.596Z,13.20
2022-10-15T08:47:31.278Z,13.30
2022-10-15T08:50:01.487Z,13.30
2022-10-15T08:52:47.079Z,13.30
2022-10-15T08:55:17.241Z,13.30
2022-10-15T08:58:26.536Z,13.30
2022-10-15T09:01:04.647Z,13.30
2022-10-15T09:38:35.444Z,14.00
2022-10-15T09:41:10.900Z,14.00
2022-10-15T09:43:41.103Z,14.00
2022-10-15T09:46:10.892Z,13.90
2022-10-15T09:48:48.324Z,13.90
2022-10-15T09:51:40.664Z,14.00
2022-10-15T09:54:42.947Z,14.10
2022-10-15T09:57:11.762Z,14.00
2022-10-15T09:59:38.754Z,13.90
2022-10-15T10:02:26.670Z,13.80
2022-10-15T10:04:54.922Z,13.80
2022-10-15T10:07:41.878Z,13.80
2022-10-15T10:10:29.519Z,13.80
2022-10-15T10:12:57.121Z,13.80
2022-10-15T10:15:34.534Z,13.80
2022-10-15T10:18:02.182Z,13.80
2022-10-15T10:20:33.745Z,13.80
2022-10-15T10:23:05.499Z,13.80
2022-10-15T10:25:44.842Z,13.90
2022-10-15T10:28:14.791Z,14.00
2022-10-15T10:30:56.087Z,14.00
2022-10-15T10:33:48.600Z,14.00
2022-10-15T10:36:36.493Z,14.00
2022-10-15T10:39:15.557Z,14.00
2022-10-15T10:41:50.691Z,14.00
2022-10-15T10:44:35.098Z,14.00
2022-10-15T10:47:18.449Z,13.80
2022-10-15T10:49:50.933Z,13.80
2022-10-15T10:52:30.921Z,13.80
2022-10-15T10:55:19.249Z,13.80
2022-10-15T10:57:55.371Z,13.80
2022-10-15T11:00:29.309Z,13.80
2022-10-15T11:02:57.620Z,13.80
2022-10-15T11:05:30.282Z,13.80
2022-10-15T11:08:12.110Z,13.80
2022-10-15T11:10:50.261Z,13.90
2022-10-15T11:13:36.347Z,13.90
2022-10-15T11:16:17.864Z,13.80
2022-10-15T11:20:05.598Z,13.80
2022-10-15T11:22:43.158Z,13.90
2022-10-15T11:25:18.916Z,13.90
2022-10-15T11:28:14.098Z,13.80
2022-10-15T11:31:24.587Z,13.90
2022-10-15T11:34:31.841Z,13.80
2022-10-15T11:37:11.200Z,13.80
2022-10-15T11:40:22.335Z,13.80
2022-10-15T11:43:04.321Z,13.80
2022-10-15T11:46:06.598Z,13.80
2022-10-15T11:49:01.397Z,13.80
2022-10-15T11:51:56.357Z,13.90
2022-10-15T11:55:02.276Z,13.80
2022-10-15T11:58:07.459Z,13.80
2022-10-15T12:01:35.479Z,13.80
2022-10-15T12:04:30.378Z,13.80
2022-10-15T12:07:12.479Z,13.90
2022-10-15T12:13:10.188Z,13.90
2022-10-15T12:15:58.053Z,13.80
2022-10-15T12:18:52.737Z,13.80
2022-10-15T12:22:11.844Z,13.70
2022-10-15T12:24:39.946Z,13.70
2022-10-15T12:27:36.012Z,13.70
2022-10-15T12:30:21.384Z,13.70
2022-10-15T12:33:31.445Z,13.60
2022-10-15T12:38:26.497Z,13.60
2022-10-15T12:40:43.827Z,13.60
2022-10-15T12:43:35.479Z,13.40
2022-10-15T12:46:18.873Z,13.40
2022-10-15T12:49:26.743Z,13.30
2022-10-15T12:55:48.313Z,13.20
2022-10-15T12:58:35.582Z,13.10
2022-10-15T13:01:14.296Z,13.10
2022-10-15T13:03:50.973Z,13.10
2022-10-15T13:06:21.008Z,13.20
2022-10-15T13:09:00.549Z,13.10
2022-10-15T13:11:30.109Z,13.10
2022-10-15T13:27:13.317Z,13.10
2022-10-15T13:30:04.059Z,13.10
2022-10-15T13:33:15.299Z,13.10
2022-10-15T13:35:47.582Z,13.00
2022-10-15T13:38:47.168Z,13.00
2022-10-15T13:41:39.167Z,13.00
2022-10-15T13:44:29.998Z,13.00
2022-10-15T13:47:52.928Z,13.00
2022-10-15T13:49:52.824Z,13.00
2022-10-15T13:52:26.466Z,13.00
2022-10-15T13:55:27.185Z,13.00
2022-10-15T13:58:27.755Z,13.00
2022-10-15T14:01:12.147Z,13.00
2022-10-15T14:03:46.664Z,13.10
2022-10-15T14:06:35.118Z,13.10
2022-10-15T14:09:49.273Z,13.10
2022-10-15T14:13:02.146Z,13.10
2022-10-15T14:15:51.761Z,13.10
2022-10-15T14:18:58.642Z,13.10
2022-10-15T14:28:01.067Z,13.10
2022-10-15T14:30:54.586Z,13.20
2022-10-15T14:33:40.483Z,13.20
2022-10-15T14:36:22.268Z,13.20
2022-10-15T14:43:00.643Z,13.20
2022-10-15T14:45:30.869Z,13.20
2022-10-15T14:48:09.470Z,13.20
2022-10-15T14:50:49.868Z,13.20
2022-10-15T14:53:21.010Z,13.20
2022-10-15T14:56:00.461Z,13.30
2022-10-15T14:58:36.220Z,13.30
2022-10-15T15:01:10.004Z,13.30
2022-10-15T15:03:42.505Z,13.30
2022-10-15T15:06:33.878Z,13.30
2022-10-15T15:12:25.509Z,13.30
2022-10-15T15:15:17.720Z,13.30
2022-10-15T15:21:01.248Z,13.30
2022-10-15T15:24:24.462Z,13.30
2022-10-15T15:26:25.456Z,13.30
2022-10-15T15:28:52.464Z,13.30
2022-10-15T15:31:19.544Z,13.30
2022-10-15T15:33:46.781Z,13.30
2022-10-15T15:36:22.496Z,13.30
2022-10-15T15:38:51.076Z,13.30
2022-10-15T15:42:42.859Z,13.30
2022-10-15T16:19:51.449Z,13.30
2022-10-15T16:32:16.281Z,13.20
2022-10-15T16:41:37.231Z,13.20
2022-10-15T16:44:40.790Z,13.20
2022-10-15T16:47:25.369Z,13.30
2022-10-15T16:50:21.279Z,13.30
2022-10-15T16:53:00.515Z,13.30
2022-10-15T16:59:03.376Z,13.20
2022-10-15T17:01:41.707Z,13.30
2022-10-15T17:04:31.353Z,13.20
2022-10-15T17:07:16.485Z,13.20
2022-10-15T17:10:10.963Z,13.30
2022-10-15T17:12:53.339Z,13.30
2022-10-15T17:15:27.393Z,13.30
2022-10-15T17:19:15.996Z,13.30
2022-10-15T17:21:33.460Z,13.40
2022-10-15T17:24:10.854Z,13.30
2022-10-15T17:27:40.986Z,13.30
2022-10-15T17:29:45.337Z,13.30
2022-10-15T17:32:28.107Z,13.20
2022-10-15T17:35:32.621Z,13.30
2022-10-15T17:38:28.294Z,13.30
2022-10-15T17:41:43.527Z,13.30
2022-10-15T17:44:16.828Z,13.30
2022-10-15T17:47:00.625Z,13.30
2022-10-15T17:49:37.293Z,13.30
2022-10-15T17:53:01.663Z,13.40
2022-10-15T17:55:56.964Z,13.30
2022-10-15T18:01:39.254Z,13.30
2022-10-15T18:04:26.825Z,13.30
2022-10-15T18:14:05.055Z,13.30
2022-10-15T18:17:40.359Z,13.30
2022-10-15T18:20:14.478Z,13.30
2022-10-15T18:22:45.874Z,13.30
2022-10-15T18:25:17.907Z,13.30
2022-10-15T18:27:47.580Z,13.30
2022-10-15T18:31:06.782Z,13.30
2022-10-15T18:37:04.007Z,13.40
2022-10-15T18:39:57.795Z,13.40
2022-10-15T18:42:47.698Z,13.30
2022-10-15T18:46:30.963Z,13.30
2022-10-15T18:48:55.282Z,13.30
2022-10-15T19:00:42.801Z,13.30
2022-10-15T19:04:00.987Z,13.30
2022-10-15T19:06:45.161Z,13.30
2022-10-15T19:10:33.453Z,13.20
2022-10-15T19:12:36.023Z,13.20
2022-10-15T19:15:38.184Z,13.20
2022-10-15T19:18:17.125Z,13.20
2022-10-15T19:21:04.292Z,13.20
2022-10-15T19:24:33.658Z,13.20
2022-10-15T19:31:02.337Z,13.20
2022-10-15T19:33:22.100Z,13.20
2022-10-15T19:36:19.341Z,13.30
2022-10-15T19:39:21.474Z,13.30
2022-10-15T19:42:35.547Z,13.30
2022-10-15T19:45:46.314Z,13.30
2022-10-15T19:55:04.146Z,13.20
2022-10-15T20:01:06.667Z,13.20
2022-10-15T20:04:55.040Z,13.30
2022-10-15T20:06:52.693Z,13.30
2022-10-15T20:09:46.298Z,13.30
2022-10-15T20:12:32.075Z,13.30
2022-10-15T20:15:26.510Z,13.30
2022-10-15T20:18:22.925Z,13.30
2022-10-15T20:20:55.618Z,13.20
2022-10-15T20:24:39.876Z,13.20
2022-10-15T20:26:38.994Z,13.20
2022-10-15T20:29:18.964Z,13.20
2022-10-15T20:31:45.921Z,13.20
2022-10-15T20:34:12.981Z,13.20
2022-10-15T20:36:41.909Z,13.20
2022-10-15T20:39:09.055Z,13.20
2022-10-15T20:41:36.243Z,13.20
2022-10-15T20:44:03.264Z,13.20
2022-10-15T20:46:34.439Z,13.20
2022-10-15T20:49:08.569Z,13.10
2022-10-15T20:51:37.401Z,13.10
2022-10-15T20:54:04.836Z,13.20
2022-10-15T20:56:32.114Z,13.10
2022-10-15T20:58:59.105Z,13.10
2022-10-15T21:01:26.154Z,13.10
2022-10-15T21:03:53.390Z,13.10
2022-10-15T21:06:20.778Z,13.10
2022-10-15T21:08:47.860Z,13.10
2022-10-15T21:11:15.191Z,13.10
2022-10-15T21:13:42.313Z,13.10
2022-10-15T21:16:09.482Z,13.10
2022-10-15T21:18:37.210Z,13.10
2022-10-15T21:21:10.091Z,13.10
2022-10-15T21:23:39.653Z,13.10
2022-10-15T21:26:07.480Z,13.10
2022-10-15T21:28:35.497Z,13.10
2022-10-15T21:31:07.038Z,13.10
2022-10-15T21:33:36.029Z,13.10
2022-10-15T21:36:22.432Z,13.00
2022-10-15T21:38:53.225Z,13.10
2022-10-15T21:41:21.114Z,13.00
2022-10-15T21:46:20.534Z,13.00
2022-10-15T21:48:47.723Z,13.00
2022-10-15T21:51:22.007Z,13.00
2022-10-15T21:53:49.137Z,13.00
2022-10-15T21:56:17.024Z,13.00
2022-10-15T21:58:44.880Z,13.10
2022-10-15T22:01:19.134Z,13.10
2022-10-15T22:03:48.733Z,13.10
2022-10-15T22:06:16.630Z,13.10
2022-10-15T22:08:44.488Z,13.00
2022-10-15T22:11:14.869Z,13.00
2022-10-15T22:13:43.812Z,13.10
2022-10-15T22:16:11.720Z,13.10
2022-10-15T22:18:39.370Z,13.10
2022-10-15T22:21:17.793Z,13.10
2022-10-15T22:23:54.718Z,13.10
2022-10-15T22:26:24.826Z,13.10
2022-10-15T22:29:00.497Z,13.10
2022-10-15T22:31:29.149Z,13.10
2022-10-15T22:33:58.537Z,13.10
2022-10-15T22:36:27.721Z,13.10
2022-10-15T22:38:57.940Z,13.10
2022-10-15T22:41:24.911Z,13.10
2022-10-15T22:43:51.923Z,13.10
2022-10-15T22:46:19.014Z,13.10
2022-10-15T22:48:46.292Z,13.10
2022-10-15T22:51:16.812Z,13.10
2022-10-15T22:53:43.866Z,13.10
2022-10-15T22:56:19.003Z,13.10
2022-10-15T22:58:46.521Z,13.10
2022-10-15T23:01:19.141Z,13.20
2022-10-15T23:03:49.959Z,13.10
2022-10-15T23:06:18.512Z,13.10
2022-10-15T23:08:47.825Z,13.10
2022-10-15T23:11:19.212Z,13.10
2022-10-15T23:13:47.911Z,13.10
2022-10-15T23:16:17.652Z,13.00
2022-10-15T23:18:47.252Z,13.10
2022-10-15T23:21:18.878Z,13.10
2022-10-15T23:23:47.098Z,13.10
2022-10-15T23:26:17.245Z,13.00
2022-10-15T23:28:49.850Z,13.00
2022-10-15T23:31:25.553Z,13.00
2022-10-15T23:33:55.364Z,13.00
2022-10-15T23:36:23.675Z,13.00
2022-10-15T23:38:53.242Z,13.00
2022-10-15T23:41:20.409Z,13.00
2022-10-15T23:43:47.760Z,13.00
2022-10-15T23:46:15.324Z,13.00
2022-10-15T23:48:43.410Z,13.00
2022-10-15T23:51:13.786Z,13.00
2022-10-15T23:53:41.609Z,13.00
2022-10-15T23:56:08.876Z,13.00
2022-10-15T23:58:36.260Z,13.00
